Hyalite Weather Station

This weather station provides temperature, wind speed, gust or max wind speed, and wind direction at 9982ft near the summit of Flanders Mountain. This data can be used with temperature and precipitation data from the Shower Falls SNOTEL site. If the data has not been updated recently you can view it directly on datagarrison.com

Elevation
9982ft
Jump to table bottom
Date Time Temperature
deg F
RH, % Wind Speed Wind Gust Wind Direction
01/24/22 07:00 14.6 54 17 28 W - 260
01/24/22 06:00 15.5 54 20 34 W - 262
01/24/22 05:00 15.7 56 18 26 W - 260
01/24/22 04:00 16.1 57 19 28 W - 260
01/24/22 03:00 16.0 56 15 23 W - 260
01/24/22 02:00 17.2 53 17 31 W - 270
01/24/22 01:00 18.6 50 19 34 W - 270
01/24/22 00:00 19.5 47 20 35 W - 271
01/23/22 23:00 20.6 41 23 45 W - 269
01/23/22 22:00 22.2 36 26 51 W - 266
01/23/22 21:00 22.4 35 27 49 W - 270
01/23/22 20:00 23.4 33 27 44 W - 269
01/23/22 19:00 25.0 29 28 51 W - 269
01/23/22 18:00 25.1 30 33 59 W - 266
01/23/22 17:00 24.4 34 27 47 W - 273
01/23/22 16:00 25.1 36 23 41 W - 270
01/23/22 15:00 27.1 35 22 44 W - 269
01/23/22 14:00 27.6 33 21 40 W - 271
01/23/22 13:00 25.9 36 22 45 W - 276
01/23/22 12:00 25.1 37 20 38 W - 270
01/23/22 11:00 22.6 45 22 41 W - 276
01/23/22 10:00 21.8 45 21 38 W - 276
01/23/22 09:00 22.4 41 21 35 W - 276
01/23/22 08:00 21.9 54 24 44 W - 277
01/23/22 07:00 20.9 64 19 33 W - 277
01/23/22 06:00 19.2 73 19 34 W - 278
01/23/22 05:00 18.8 84 21 38 W - 271
01/23/22 04:00 17.4 94 20 31 W - 264
01/23/22 03:00 17.7 95 19 34 W - 273
01/23/22 02:00 18.0 95 19 34 W - 271
01/23/22 01:00 19.0 95 20 36 W - 274
01/23/22 00:00 19.4 95 18 29 W - 274
01/22/22 23:00 19.2 95 18 27 W - 270
01/22/22 22:00 19.2 95 15 22 W - 274
01/22/22 21:00 19.2 95 10 17 W - 277
01/22/22 20:00 19.9 95 13 19 W - 278
01/22/22 19:00 18.5 95 15 21 W - 273
01/22/22 18:00 18.5 95 13 20 W - 273
01/22/22 17:00 19.9 95 12 19 W - 269
01/22/22 16:00 21.4 96 10 14 W - 263
01/22/22 15:00 21.8 96 11 18 W - 262
01/22/22 14:00 21.0 95 10 20 W - 269
01/22/22 13:00 21.2 95 6 9 W - 267
01/22/22 12:00 21.1 95 5 12 NW - 301
01/22/22 11:00 18.2 94 7 10 N - -2
01/22/22 10:00 17.3 94 4 9 NW - 318
01/22/22 09:00 12.8 92 4 7 W - 291
01/22/22 08:00 11.5 92 5 7 W - 274
01/22/22 07:00 11.6 92 6 9 W - 276
01/22/22 06:00 11.2 92 7 11 W - 280